Time;durP1;ratioP1;P1;durP2;ratioP2;P2;SDS_P1;SDS_P2;PMS_P1;PMS_P2;Temp;Humidity;BMP_temperature;BMP_pressure;BME280_temperature;BME280_humidity;BME280_pressure;Samples;Min_cycle;Max_cycle;Signal;HPM_P1;HPM_P2
2023/07/29 00:00:42;;;;;;;5.45;2.83;;;;;;;19.84;100.00;100852.84;5051645;28;20461;-72
2023/07/29 00:03:08;;;;;;;3.25;2.85;;;;;;;19.87;100.00;100899.13;5052240;28;20036;-73
2023/07/29 00:05:33;;;;;;;4.60;2.75;;;;;;;19.39;100.00;100799.25;5052243;28;20431;-74
2023/07/29 00:07:59;;;;;;;3.35;2.63;;;;;;;19.60;100.00;100879.91;5051673;28;20068;-74
2023/07/29 00:10:24;;;;;;;3.40;2.45;;;;;;;19.55;100.00;100828.53;5034308;28;20411;-73
2023/07/29 00:12:49;;;;;;;3.20;2.28;;;;;;;19.62;100.00;100823.91;5051256;28;20040;-73
2023/07/29 00:15:15;;;;;;;3.45;2.75;;;;;;;19.91;100.00;100874.03;5051447;28;20047;-73
2023/07/29 00:17:40;;;;;;;5.20;2.70;;;;;;;19.97;100.00;100879.69;5060266;28;20051;-71
2023/07/29 00:20:06;;;;;;;3.72;2.40;;;;;;;19.89;100.00;100861.16;5065944;28;20036;-74
2023/07/29 00:22:32;;;;;;;4.07;2.38;;;;;;;19.85;100.00;100854.50;5052140;28;20086;-74
2023/07/29 00:24:59;;;;;;;3.25;2.50;;;;;;;19.68;100.00;100783.13;5051615;28;20025;-73
2023/07/29 00:27:25;;;;;;;3.22;2.30;;;;;;;19.58;100.00;100841.28;5052035;28;20113;-73
2023/07/29 00:29:50;;;;;;;3.80;2.78;;;;;;;19.42;100.00;100795.69;5033812;28;20031;-73
2023/07/29 00:32:16;;;;;;;9.00;2.70;;;;;;;19.49;100.00;100791.91;5050307;28;20037;-73
2023/07/29 00:34:41;;;;;;;3.88;2.40;;;;;;;19.67;100.00;100796.94;5051861;28;20036;-73
2023/07/29 00:37:07;;;;;;;5.57;2.70;;;;;;;19.41;100.00;100778.56;5033353;28;20551;-73
2023/07/29 00:39:32;;;;;;;6.22;2.85;;;;;;;19.12;100.00;100789.47;5051239;28;20025;-72
2023/07/29 00:41:58;;;;;;;4.03;2.60;;;;;;;19.64;100.00;100853.88;5051784;28;20108;-72
2023/07/29 00:44:24;;;;;;;4.60;2.92;;;;;;;19.57;100.00;100872.34;5051268;28;20025;-72
2023/07/29 00:46:54;;;;;;;4.82;2.50;;;;;;;19.23;100.00;100808.69;5033694;28;20051;-73
2023/07/29 00:49:20;;;;;;;4.72;2.63;;;;;;;19.39;100.00;100809.56;5051063;28;20055;-72
2023/07/29 00:51:46;;;;;;;4.50;3.17;;;;;;;19.23;100.00;100849.94;5051547;28;20139;-73
2023/07/29 00:54:13;;;;;;;4.88;2.90;;;;;;;19.17;100.00;100784.94;5051310;28;20102;-73
2023/07/29 00:56:39;;;;;;;5.47;2.88;;;;;;;18.98;100.00;100736.88;5051560;28;20029;-73
2023/07/29 00:59:04;;;;;;;4.78;2.80;;;;;;;19.46;100.00;100776.56;5050480;28;20101;-72
2023/07/29 01:01:30;;;;;;;5.72;2.90;;;;;;;19.11;100.00;100720.78;5051281;28;20442;-73
2023/07/29 01:03:56;;;;;;;4.80;2.90;;;;;;;18.91;100.00;100717.50;5033155;28;20076;-73
2023/07/29 01:06:40;;;;;;;3.50;2.80;;;;;;;19.31;100.00;100779.91;5050782;28;20037;-73
2023/07/29 01:09:10;;;;;;;4.18;2.80;;;;;;;19.11;100.00;100724.22;5033475;28;20037;-73
2023/07/29 01:11:47;;;;;;;4.30;3.10;;;;;;;19.55;100.00;100755.47;5033377;28;20051;-73
2023/07/29 01:14:34;;;;;;;4.75;2.63;;;;;;;18.79;100.00;100682.03;5033116;28;20039;-73
2023/07/29 01:17:15;;;;;;;4.95;3.03;;;;;;;18.75;100.00;100675.34;5050901;28;20029;-73
2023/07/29 01:19:52;;;;;;;3.50;2.80;;;;;;;19.17;100.00;100746.25;5051211;28;20104;-74
2023/07/29 01:22:20;;;;;;;4.00;2.70;;;;;;;18.90;100.00;100735.59;5050955;28;20065;-74
2023/07/29 01:24:46;;;;;;;3.95;2.88;;;;;;;18.57;100.00;100671.13;5051362;28;20037;-74
2023/07/29 01:27:11;;;;;;;4.57;2.88;;;;;;;18.73;100.00;100676.34;5050735;28;20071;-74
2023/07/29 01:29:37;;;;;;;4.95;3.10;;;;;;;18.98;100.00;100718.84;5050809;28;20483;-73
2023/07/29 01:32:10;;;;;;;4.78;2.88;;;;;;;18.93;100.00;100714.81;5050560;28;20059;-73
2023/07/29 01:34:45;;;;;;;4.82;3.30;;;;;;;18.80;100.00;100695.72;5050486;28;20028;-73
2023/07/29 01:37:19;;;;;;;4.70;3.38;;;;;;;18.50;100.00;100635.44;5050643;28;20519;-74
2023/07/29 01:39:46;;;;;;;4.55;3.47;;;;;;;18.69;100.00;100680.81;5051094;28;20380;-73
2023/07/29 01:42:12;;;;;;;4.20;3.22;;;;;;;18.72;100.00;100688.38;5051451;28;20033;-72
2023/07/29 01:44:37;;;;;;;7.55;3.13;;;;;;;18.87;100.00;100744.31;5037082;28;20567;-73
2023/07/29 01:47:03;;;;;;;4.75;3.35;;;;;;;18.54;100.00;100717.63;5054885;28;20491;-74
2023/07/29 01:49:28;;;;;;;7.05;3.90;;;;;;;18.76;100.00;100777.50;5054488;28;20045;-73
2023/07/29 01:51:54;;;;;;;4.63;3.38;;;;;;;18.67;100.00;100759.09;5055050;28;20103;-74
2023/07/29 01:54:19;;;;;;;6.00;3.80;;;;;;;18.48;100.00;100756.56;5054513;28;20468;-72
2023/07/29 01:56:45;;;;;;;6.82;3.42;;;;;;;18.70;100.00;100758.91;5054412;28;20037;-73
2023/07/29 01:59:10;;;;;;;7.38;3.65;;;;;;;19.10;100.00;100763.78;5054553;28;20570;-74
2023/07/29 02:01:36;;;;;;;5.68;3.47;;;;;;;18.42;100.00;100607.44;5054257;28;20028;-74
2023/07/29 02:04:01;;;;;;;5.07;3.30;;;;;;;17.90;100.00;100541.44;5054290;28;20071;-74
2023/07/29 02:06:27;;;;;;;5.88;3.53;;;;;;;18.63;100.00;100598.69;5054445;28;20087;-72
2023/07/29 02:08:52;;;;;;;6.20;3.20;;;;;;;18.50;100.00;100453.41;5054575;28;20025;-73
2023/07/29 02:11:20;;;;;;;5.03;3.63;;;;;;;18.84;100.00;100471.31;5035943;28;20476;-74
2023/07/29 02:13:45;;;;;;;7.57;3.92;;;;;;;18.71;100.00;100508.13;5054347;28;20021;-72
2023/07/29 02:16:11;;;;;;;4.15;3.75;;;;;;;18.52;100.00;100432.75;5054240;28;20033;-74
2023/07/29 02:18:37;;;;;;;5.63;3.70;;;;;;;19.03;100.00;100487.44;5054302;28;20402;-72
2023/07/29 02:21:02;;;;;;;5.22;3.80;;;;;;;19.09;100.00;100480.28;5036334;28;20028;-73
2023/07/29 02:23:28;;;;;;;5.05;4.00;;;;;;;18.53;100.00;100398.34;5036171;28;20033;-73
2023/07/29 02:25:53;;;;;;;4.28;3.42;;;;;;;18.42;100.00;100356.88;5053889;28;20149;-73
2023/07/29 02:28:19;;;;;;;5.05;3.72;;;;;;;18.55;100.00;100360.44;5053838;28;20032;-73
2023/07/29 02:30:44;;;;;;;5.47;4.00;;;;;;;18.66;100.00;100391.63;5053987;28;20032;-72
2023/07/29 02:33:10;;;;;;;5.53;4.07;;;;;;;18.18;100.00;100369.31;5053169;28;20021;-73
2023/07/29 02:35:35;;;;;;;4.88;3.63;;;;;;;18.56;100.00;100332.03;5036019;28;20029;-73
2023/07/29 02:38:01;;;;;;;5.70;3.92;;;;;;;18.51;100.00;100316.03;5053388;28;20025;-71
2023/07/29 02:40:28;;;;;;;3.97;3.58;;;;;;;18.46;100.00;100305.13;5053472;28;20037;-73
2023/07/29 02:42:53;;;;;;;5.68;3.85;;;;;;;18.55;100.00;100316.66;5053603;28;20025;-72
2023/07/29 02:45:18;;;;;;;5.00;3.70;;;;;;;18.01;100.00;100227.81;5053663;28;20029;-73
2023/07/29 02:47:44;;;;;;;6.55;3.58;;;;;;;18.81;100.00;100326.38;5053314;28;20111;-73
2023/07/29 02:50:09;;;;;;;5.93;3.88;;;;;;;18.67;100.00;100398.44;5053502;28;20501;-73
2023/07/29 02:52:35;;;;;;;6.75;4.15;;;;;;;18.67;100.00;100311.69;5052421;28;20033;-72
2023/07/29 02:55:00;;;;;;;5.93;3.78;;;;;;;18.82;100.00;100375.22;5033069;28;20055;-74
2023/07/29 02:57:26;;;;;;;5.40;3.80;;;;;;;18.32;100.00;100322.22;5034570;28;20125;-72
2023/07/29 02:59:51;;;;;;;4.40;4.00;;;;;;;18.64;100.00;100422.59;5052598;28;20502;-72
2023/07/29 03:02:16;;;;;;;6.00;4.15;;;;;;;18.49;100.00;100436.31;5052728;28;20170;-73
2023/07/29 03:04:42;;;;;;;4.70;3.75;;;;;;;18.84;100.00;100466.16;5053104;28;20143;-74
2023/07/29 03:07:07;;;;;;;6.65;4.15;;;;;;;18.50;100.00;100468.84;5052370;28;20033;-71
2023/07/29 03:09:33;;;;;;;4.40;3.63;;;;;;;18.85;100.00;100599.25;5034439;28;20029;-73
2023/07/29 03:11:59;;;;;;;4.65;3.80;;;;;;;18.53;100.00;100581.19;5052306;28;20033;-73
2023/07/29 03:14:24;;;;;;;7.38;3.63;;;;;;;18.28;100.00;100671.69;5053264;28;20025;-75
2023/07/29 03:16:50;;;;;;;5.18;3.63;;;;;;;18.85;100.00;100863.84;5053150;28;20033;-75
2023/07/29 03:19:15;;;;;;;8.85;3.85;;;;;;;18.64;100.00;100870.03;5052950;28;20045;-75
2023/07/29 03:21:41;;;;;;;7.60;3.90;;;;;;;18.63;100.00;100950.78;5052567;28;20037;-74
2023/07/29 03:24:06;;;;;;;8.85;4.07;;;;;;;18.82;100.00;101070.97;5052481;28;20115;-73
2023/07/29 03:26:32;;;;;;;8.10;3.88;;;;;;;18.83;100.00;101120.78;5053030;28;20039;-74
2023/07/29 03:28:57;;;;;;;5.43;3.75;;;;;;;18.84;100.00;101125.88;5052776;28;20393;-73
2023/07/29 03:31:23;;;;;;;5.45;3.70;;;;;;;18.98;100.00;101243.84;5038640;28;20039;-74
2023/07/29 03:33:48;;;;;;;5.72;3.97;;;;;;;18.60;100.00;101211.13;5042928;28;20083;-74
2023/07/29 03:36:14;;;;;;;6.47;3.60;;;;;;;18.85;100.00;101274.47;5053678;28;20492;-74
2023/07/29 03:38:40;;;;;;;6.25;3.78;;;;;;;19.03;100.00;101304.63;5052755;28;20029;-74
2023/07/29 03:41:09;;;;;;;5.68;3.80;;;;;;;18.97;100.00;101307.50;5052428;28;20029;-73
2023/07/29 03:43:35;;;;;;;4.93;4.22;;;;;;;18.27;100.00;101259.63;5052751;28;20029;-73
2023/07/29 03:46:00;;;;;;;4.60;3.70;;;;;;;18.60;100.00;101347.69;5034384;28;20415;-73
2023/07/29 03:48:26;;;;;;;4.57;3.20;;;;;;;19.01;100.00;101411.31;5051981;28;20096;-73
2023/07/29 03:50:51;;;;;;;3.88;2.85;;;;;;;18.83;100.00;101430.06;5052138;28;20380;-73
2023/07/29 03:53:17;;;;;;;5.45;3.20;;;;;;;18.64;100.00;101369.84;5052248;28;20029;-74
2023/07/29 03:55:43;;;;;;;3.85;3.15;;;;;;;19.16;100.00;101376.31;5034204;28;20036;-73
2023/07/29 03:58:08;;;;;;;6.50;3.00;;;;;;;19.17;100.00;101373.69;5033954;28;20036;-73
2023/07/29 04:00:33;;;;;;;5.32;3.20;;;;;;;18.70;100.00;101262.19;5034221;28;20036;-72
2023/07/29 04:02:59;;;;;;;5.53;2.83;;;;;;;18.79;100.00;101245.53;5034162;28;20036;-73
2023/07/29 04:05:24;;;;;;;4.50;3.08;;;;;;;19.31;100.00;101254.47;5052167;28;20040;-74
2023/07/29 04:07:50;;;;;;;4.45;2.45;;;;;;;18.83;100.00;101142.25;5051770;28;20033;-72
2023/07/29 04:10:15;;;;;;;5.68;2.85;;;;;;;19.09;100.00;101153.16;5051763;28;20029;-74
2023/07/29 04:12:41;;;;;;;3.67;2.95;;;;;;;19.26;100.00;101190.19;5051989;28;20025;-75
2023/07/29 04:15:07;;;;;;;3.97;2.70;;;;;;;19.15;100.00;101129.69;5051740;28;20219;-76
2023/07/29 04:17:32;;;;;;;3.95;2.95;;;;;;;19.58;100.00;101168.97;5051997;28;20381;-74
2023/07/29 04:19:57;;;;;;;4.47;2.70;;;;;;;19.87;100.00;101162.44;5052047;28;20029;-74
2023/07/29 04:22:23;;;;;;;3.33;2.58;;;;;;;19.86;100.00;101160.78;5051684;28;20110;-74
2023/07/29 04:24:48;;;;;;;4.00;2.63;;;;;;;19.82;100.00;101130.88;5051968;28;20024;-73
2023/07/29 04:27:14;;;;;;;3.90;2.80;;;;;;;19.99;100.00;101096.47;5051428;28;20475;-74
2023/07/29 04:29:39;;;;;;;5.53;2.88;;;;;;;19.88;100.00;101066.88;5051794;28;20451;-75
2023/07/29 04:32:05;;;;;;;3.63;2.85;;;;;;;20.04;100.00;101053.22;5051761;28;20025;-73
2023/07/29 04:34:31;;;;;;;12.00;5.82;;;;;;;20.12;100.00;101061.41;5052053;28;20031;-74
2023/07/29 04:36:57;;;;;;;8.30;5.78;;;;;;;19.90;100.00;101077.13;5051639;28;20025;-74
2023/07/29 04:39:22;;;;;;;8.95;5.35;;;;;;;20.24;100.00;101118.50;5050825;28;20033;-74
2023/07/29 04:41:48;;;;;;;7.43;5.50;;;;;;;20.02;100.00;101122.16;5051148;28;20083;-74
2023/07/29 04:44:13;;;;;;;6.57;5.13;;;;;;;20.13;100.00;101153.47;5051311;28;20032;-73
2023/07/29 04:46:39;;;;;;;12.93;7.90;;;;;;;20.11;100.00;101171.63;5051192;28;20025;-74
2023/07/29 04:49:04;;;;;;;9.98;7.07;;;;;;;19.95;100.00;101118.22;5050867;28;20127;-73
2023/07/29 04:51:31;;;;;;;11.10;5.50;;;;;;;20.66;100.00;101180.09;5033617;28;20029;-73
2023/07/29 04:53:57;;;;;;;12.57;6.53;;;;;;;20.50;100.00;101099.91;5033303;28;20155;-73
2023/07/29 04:56:22;;;;;;;6.55;4.85;;;;;;;21.16;100.00;101133.56;5051351;28;20467;-73
2023/07/29 04:58:48;;;;;;;10.27;5.35;;;;;;;20.82;100.00;101049.13;5051175;28;20040;-73
2023/07/29 05:01:13;;;;;;;5.72;4.40;;;;;;;20.64;100.00;101012.16;5051063;28;20388;-74
2023/07/29 05:03:39;;;;;;;12.75;6.25;;;;;;;21.07;100.00;101010.75;5051210;28;20032;-72
2023/07/29 05:06:05;;;;;;;9.40;5.88;;;;;;;21.40;100.00;101045.09;5051250;28;20064;-74
2023/07/29 05:08:30;;;;;;;6.80;4.30;;;;;;;21.52;100.00;101003.00;5051166;28;20112;-73
2023/07/29 05:10:56;;;;;;;5.15;4.00;;;;;;;21.65;100.00;100925.47;5033075;28;20091;-73
2023/07/29 05:13:22;;;;;;;9.50;4.05;;;;;;;21.40;100.00;100808.78;5051110;28;20028;-73
2023/07/29 05:15:49;;;;;;;5.05;3.30;;;;;;;21.85;100.00;100803.44;5032605;28;20025;-74
2023/07/29 05:18:15;;;;;;;4.82;4.03;;;;;;;21.92;100.00;100742.59;5053170;28;20064;-72
2023/07/29 05:20:41;;;;;;;9.70;3.95;;;;;;;22.05;100.00;100727.09;5055028;28;20554;-73
2023/07/29 05:23:06;;;;;;;8.05;4.25;;;;;;;22.22;100.00;100700.97;5054930;28;20032;-73
2023/07/29 05:25:32;;;;;;;6.05;4.03;;;;;;;22.85;100.00;100745.19;5054897;28;20028;-74
2023/07/29 05:27:57;;;;;;;6.85;3.58;;;;;;;22.85;100.00;100701.94;5055189;28;20846;-75
2023/07/29 05:30:23;;;;;;;5.63;3.35;;;;;;;22.29;100.00;100630.50;5054844;28;20017;-75
2023/07/29 05:32:48;;;;;;;4.90;3.47;;;;;;;22.79;100.00;100624.56;5037053;28;20419;-74
2023/07/29 05:35:14;;;;;;;4.75;3.17;;;;;;;22.56;100.00;100598.50;5054684;28;20025;-74
2023/07/29 05:37:40;;;;;;;9.00;3.58;;;;;;;23.03;100.00;100604.72;5054261;28;20127;-74
2023/07/29 05:40:06;;;;;;;4.55;3.08;;;;;;;23.56;100.00;100629.53;5054662;28;20160;-74
2023/07/29 05:42:32;;;;;;;8.18;3.50;;;;;;;22.98;100.00;100543.69;5036791;28;20025;-71
2023/07/29 05:44:58;;;;;;;6.97;3.28;;;;;;;23.95;100.00;100613.66;5054327;28;20435;-72
2023/07/29 05:47:23;;;;;;;7.47;3.20;;;;;;;23.89;100.00;100605.47;5054380;28;20405;-74
2023/07/29 05:49:49;;;;;;;6.25;3.20;;;;;;;23.23;100.00;100600.72;5054691;28;20053;-75
2023/07/29 05:52:15;;;;;;;5.00;2.90;;;;;;;23.99;100.00;100598.66;5054459;28;20103;-74
2023/07/29 05:54:42;;;;;;;3.50;2.80;;;;;;;23.85;100.00;100573.69;5036363;28;20545;-74
2023/07/29 05:57:09;;;;;;;7.10;3.35;;;;;;;24.08;100.00;100575.47;5070080;28;20024;-73
2023/07/29 05:59:34;;;;;;;5.22;2.50;;;;;;;24.30;100.00;100543.50;5053913;28;20477;-73
2023/07/29 06:01:59;;;;;;;5.03;2.67;;;;;;;24.54;100.00;100585.03;5054199;28;20045;-72
2023/07/29 06:04:25;;;;;;;3.72;3.00;;;;;;;24.53;100.00;100529.56;5036084;28;20033;-73
2023/07/29 06:06:50;;;;;;;4.88;2.88;;;;;;;24.18;100.00;100525.41;5054011;28;20510;-75
2023/07/29 06:09:16;;;;;;;4.68;3.13;;;;;;;25.02;100.00;100583.84;5054331;28;20032;-74
2023/07/29 06:11:41;;;;;;;5.15;2.72;;;;;;;25.19;100.00;100577.34;5069366;28;20044;-74
2023/07/29 06:14:07;;;;;;;4.15;2.92;;;;;;;25.25;100.00;100569.03;5035815;28;20088;-73
2023/07/29 06:16:32;;;;;;;3.90;2.60;;;;;;;25.53;100.00;100569.34;5053884;28;20065;-73
2023/07/29 06:18:58;;;;;;;3.78;2.45;;;;;;;25.52;100.00;100527.78;5053966;28;20128;-74
2023/07/29 06:21:23;;;;;;;4.20;2.50;;;;;;;25.44;100.00;100574.47;5053538;28;20391;-73
2023/07/29 06:23:49;;;;;;;3.92;2.17;;;;;;;25.64;100.00;100512.00;5053641;28;20032;-75
2023/07/29 06:26:14;;;;;;;6.13;2.83;;;;;;;25.72;100.00;100525.22;5054201;28;20054;-72
2023/07/29 06:28:39;;;;;;;5.15;3.30;;;;;;;25.93;100.00;100579.97;5035499;28;20020;-70
2023/07/29 06:31:05;;;;;;;4.32;2.80;;;;;;;26.22;100.00;100575.00;5053665;28;20036;-71
2023/07/29 06:33:30;;;;;;;3.63;2.38;;;;;;;26.44;100.00;100539.13;5035558;28;20107;-73
2023/07/29 06:35:56;;;;;;;3.75;2.58;;;;;;;26.63;100.00;100580.16;5053326;28;20428;-73
2023/07/29 06:38:21;;;;;;;4.32;2.63;;;;;;;26.43;100.00;100560.97;5053380;28;20416;-73
2023/07/29 06:40:50;;;;;;;3.58;2.42;;;;;;;26.34;100.00;100524.41;5035496;28;20028;-75
2023/07/29 06:43:16;;;;;;;5.35;2.88;;;;;;;26.15;100.00;100560.78;5053729;28;20092;-72
2023/07/29 06:45:42;;;;;;;5.03;2.92;;;;;;;26.46;100.00;100572.94;5058718;28;20049;-74
2023/07/29 06:48:08;;;;;;;3.92;2.70;;;;;;;26.21;100.00;100566.34;5039430;28;20489;-73
2023/07/29 06:50:33;;;;;;;3.08;2.70;;;;;;;26.86;100.00;100554.75;5052956;28;20025;-73
2023/07/29 06:52:59;;;;;;;3.85;2.60;;;;;;;26.42;100.00;100542.84;5035160;28;20032;-74
2023/07/29 06:55:24;;;;;;;4.65;2.72;;;;;;;26.73;100.00;100572.41;5042340;28;20410;-75
2023/07/29 06:57:50;;;;;;;5.50;2.40;;;;;;;27.15;100.00;100593.03;5072951;28;20028;-73
2023/07/29 07:00:15;;;;;;;6.20;3.10;;;;;;;26.75;100.00;100536.56;5072733;28;20125;-73
2023/07/29 07:02:41;;;;;;;8.10;4.35;;;;;;;27.29;100.00;100521.31;5072971;28;20426;-75
2023/07/29 07:05:07;;;;;;;6.10;3.38;;;;;;;27.27;100.00;100585.91;5073166;28;20495;-72
2023/07/29 07:07:32;;;;;;;4.25;2.80;;;;;;;27.57;100.00;100585.84;5055415;28;20032;-73
2023/07/29 07:09:58;;;;;;;8.00;2.70;;;;;;;27.33;100.00;100578.41;5072889;28;20098;-74
2023/07/29 07:12:23;;;;;;;6.65;2.95;;;;;;;27.61;100.00;100560.28;5051878;28;20032;-75
2023/07/29 07:14:49;;;;;;;6.00;2.50;;;;;;;28.50;100.00;100576.41;5052620;28;20100;-74
2023/07/29 07:17:14;;;;;;;3.65;2.33;;;;;;;27.01;100.00;100546.41;5035191;28;20470;-74
2023/07/29 07:19:40;;;;;;;3.95;2.25;;;;;;;27.92;100.00;100538.22;5034812;28;20415;-75
2023/07/29 07:22:05;;;;;;;4.88;2.58;;;;;;;27.83;100.00;100541.69;5035730;28;20480;-78
2023/07/29 07:24:31;;;;;;;3.92;2.70;;;;;;;28.16;100.00;100534.25;5036049;28;20025;-77
2023/07/29 07:26:56;;;;;;;8.00;2.45;;;;;;;28.40;100.00;100530.31;5053317;28;20029;-72
2023/07/29 07:29:21;;;;;;;8.27;2.50;;;;;;;28.71;100.00;100542.19;5052664;28;20025;-75
2023/07/29 07:31:55;;;;;;;4.07;2.53;;;;;;;28.55;100.00;100557.69;5052798;28;20021;-74
2023/07/29 07:34:21;;;;;;;5.05;2.40;;;;;;;28.35;100.00;100595.31;5052404;28;20029;-74
2023/07/29 07:36:46;;;;;;;8.30;2.78;;;;;;;28.12;100.00;100555.56;5052339;28;20032;-74
2023/07/29 07:39:12;;;;;;;4.35;2.53;;;;;;;29.14;100.00;100558.09;5052546;28;20028;-75
2023/07/29 07:41:38;;;;;;;4.57;2.42;;;;;;;29.08;100.00;100592.72;5034219;28;20025;-77
2023/07/29 07:44:03;;;;;;;4.57;2.42;;;;;;;29.59;100.00;100576.44;5070125;28;20103;-77
2023/07/29 07:46:29;;;;;;;2.85;2.20;;;;;;;29.34;100.00;100541.28;5055332;28;20029;-77
2023/07/29 07:48:54;;;;;;;5.05;2.72;;;;;;;29.33;100.00;100570.28;5072515;28;20530;-75
2023/07/29 07:51:20;;;;;;;3.80;2.33;;;;;;;29.48;100.00;100574.03;5055059;28;20085;-78
2023/07/29 07:53:46;;;;;;;5.13;2.65;;;;;;;29.43;100.00;100532.53;5073292;28;20059;-75
2023/07/29 07:56:11;;;;;;;4.13;2.42;;;;;;;28.21;100.00;100505.84;5054402;28;20111;-75
2023/07/29 07:58:36;;;;;;;5.05;2.17;;;;;;;28.79;100.00;100498.59;5054480;28;20029;-75
2023/07/29 08:01:07;;;;;;;3.28;2.20;;;;;;;28.71;100.00;100539.56;5071941;28;20078;-75
2023/07/29 08:03:33;;;;;;;3.72;2.17;;;;;;;29.42;100.00;100541.38;5072632;28;20041;-73
2023/07/29 08:05:59;;;;;;;5.18;2.45;;;;;;;30.73;100.00;100514.09;5053902;28;20035;-75
2023/07/29 08:08:25;;;;;;;3.90;2.38;;;;;;;30.37;100.00;100488.97;5070249;28;20111;-73
2023/07/29 08:10:54;;;;;;;5.80;2.13;;;;;;;30.09;100.00;100487.50;5071671;28;20028;-74
2023/07/29 08:13:19;;;;;;;6.25;2.45;;;;;;;30.32;100.00;100472.88;5052374;28;20036;-74
2023/07/29 08:15:49;;;;;;;3.08;2.20;;;;;;;30.51;100.00;100527.78;5070335;28;20032;-74
2023/07/29 08:18:15;;;;;;;3.10;2.50;;;;;;;29.86;100.00;100466.19;5070972;28;20029;-74
2023/07/29 08:20:40;;;;;;;4.07;2.67;;;;;;;30.21;100.00;100447.69;5070611;28;20110;-75
2023/07/29 08:23:06;;;;;;;5.65;2.20;;;;;;;30.70;100.00;100499.44;5053903;28;20033;-74
2023/07/29 08:25:31;;;;;;;2.85;2.30;;;;;;;31.23;100.00;100495.69;5071499;28;20032;-75
2023/07/29 08:27:56;;;;;;;4.13;2.25;;;;;;;30.93;100.00;100470.81;5071400;28;20581;-75
2023/07/29 08:30:22;;;;;;;2.53;2.17;;;;;;;31.19;100.00;100397.09;5070563;28;20094;-75
2023/07/29 08:32:47;;;;;;;4.13;2.50;;;;;;;30.90;100.00;100425.66;5070950;28;20074;-74
2023/07/29 08:35:13;;;;;;;3.42;2.25;;;;;;;31.16;100.00;100466.59;5071121;28;20470;-74
2023/07/29 08:37:38;;;;;;;6.60;2.58;;;;;;;30.73;100.00;100438.75;5070835;28;20123;-74
2023/07/29 08:40:05;;;;;;;3.45;2.60;;;;;;;31.31;100.00;100419.44;5052730;28;20048;-73
2023/07/29 08:42:32;;;;;;;8.23;3.80;;;;;;;31.00;100.00;100478.91;5052750;28;20490;-74
2023/07/29 08:45:06;;;;;;;3.00;2.60;;;;;;;30.59;100.00;100431.47;5053195;28;20113;-73
2023/07/29 08:47:31;;;;;;;6.00;2.80;;;;;;;31.12;100.00;100410.06;5052805;28;20028;-74
2023/07/29 08:49:58;;;;;;;2.40;2.20;;;;;;;31.32;100.00;100450.00;5071711;28;20648;-74
2023/07/29 08:52:25;;;;;;;3.42;2.30;;;;;;;30.47;100.00;100398.63;5070624;28;20027;-74
2023/07/29 08:54:52;;;;;;;3.83;2.47;;;;;;;31.61;100.00;100445.09;5071243;28;20123;-73
2023/07/29 08:57:19;;;;;;;2.50;2.30;;;;;;;31.50;100.00;100442.78;5053061;28;20024;-73
2023/07/29 08:59:45;;;;;;;3.25;2.20;;;;;;;31.68;100.00;100445.22;5070638;28;20037;-73
2023/07/29 09:02:11;;;;;;;5.50;2.60;;;;;;;31.09;100.00;100422.72;5071158;28;20043;-74
2023/07/29 09:04:36;;;;;;;3.63;2.20;;;;;;;30.63;100.00;100387.31;5070775;28;20037;-75
2023/07/29 09:07:03;;;;;;;2.97;2.40;;;;;;;31.75;100.00;100431.28;5071368;28;20029;-75
2023/07/29 09:09:28;;;;;;;3.78;2.20;;;;;;;32.18;100.00;100424.75;5053192;28;20029;-75
2023/07/29 09:11:54;;;;;;;2.33;2.08;;;;;;;31.76;100.00;100411.03;5071572;28;20403;-75
2023/07/29 09:14:20;;;;;;;3.28;2.50;;;;;;;32.53;100.00;100397.09;5052847;28;20016;-74
2023/07/29 09:16:46;;;;;;;3.80;2.25;;;;;;;31.74;100.00;100334.91;5053405;28;20039;-74
2023/07/29 09:19:11;;;;;;;3.75;2.58;;;;;;;31.48;100.00;100353.56;5071174;28;20058;-75
2023/07/29 09:21:40;;;;;;;3.42;2.78;;;;;;;32.84;100.00;100397.91;5053164;28;20028;-75
2023/07/29 09:24:07;;;;;;;3.85;2.92;;;;;;;32.36;100.00;100323.44;5070830;28;20028;-73
2023/07/29 09:26:32;;;;;;;3.05;2.30;;;;;;;32.26;100.00;100335.19;5070877;28;20031;-75
2023/07/29 09:28:59;;;;;;;7.00;3.35;;;;;;;31.87;100.00;100397.53;5070832;28;20024;-75
2023/07/29 09:31:26;;;;;;;5.43;2.65;;;;;;;32.36;100.00;100370.03;5052808;28;20039;-74
2023/07/29 09:33:58;;;;;;;2.53;1.92;;;;;;;31.33;100.00;100325.44;5053040;28;20086;-75
2023/07/29 09:36:23;;;;;;;3.65;2.40;;;;;;;32.08;100.00;100374.94;5052836;28;20119;-75
2023/07/29 09:38:52;;;;;;;3.42;2.33;;;;;;;32.52;100.00;100366.50;5052854;28;20119;-74
2023/07/29 09:41:18;;;;;;;3.53;2.13;;;;;;;32.38;100.00;100360.97;5070804;28;20039;-74
2023/07/29 09:43:43;;;;;;;2.88;2.25;;;;;;;32.86;100.00;100341.38;5070773;28;20406;-74
2023/07/29 09:46:08;;;;;;;4.65;2.50;;;;;;;32.89;100.00;100353.38;5070747;28;20037;-75
2023/07/29 09:48:35;;;;;;;2.20;2.00;;;;;;;32.75;100.00;100338.34;5070112;28;20094;-75
2023/07/29 09:51:13;;;;;;;2.78;2.10;;;;;;;33.23;100.00;100311.59;5070657;28;20063;-74
2023/07/29 09:53:43;;;;;;;2.55;1.98;;;;;;;32.35;100.00;100307.81;5053128;28;20090;-75
2023/07/29 09:56:09;;;;;;;2.42;1.80;;;;;;;32.50;100.00;100300.84;5052618;28;20056;-74
2023/07/29 09:58:37;;;;;;;2.83;1.90;;;;;;;32.58;100.00;100302.59;5071175;28;20037;-76
2023/07/29 10:01:03;;;;;;;2.60;2.08;;;;;;;32.41;100.00;100297.41;5072434;28;20021;-74
2023/07/29 10:03:31;;;;;;;2.55;2.15;;;;;;;32.61;100.00;100291.69;5071947;28;20039;-74
2023/07/29 10:06:01;;;;;;;2.95;2.13;;;;;;;33.46;100.00;100308.88;5073641;28;20082;-75
2023/07/29 10:08:28;;;;;;;2.57;1.90;;;;;;;33.68;100.00;100342.28;5056221;28;20044;-74
2023/07/29 10:10:55;;;;;;;3.67;2.10;;;;;;;32.61;100.00;100305.69;5073551;28;20068;-75
2023/07/29 10:13:20;;;;;;;3.10;2.00;;;;;;;33.89;100.00;100345.00;5073522;28;20094;-75
2023/07/29 10:15:46;;;;;;;3.30;2.15;;;;;;;33.56;100.00;100341.09;5056293;28;20025;-75
2023/07/29 10:18:12;;;;;;;2.97;2.00;;;;;;;33.80;100.00;100336.38;5074103;28;20033;-75
2023/07/29 10:20:40;;;;;;;3.05;1.63;;;;;;;33.18;100.00;100256.75;5073990;28;20039;-74
2023/07/29 10:23:08;;;;;;;3.15;1.90;;;;;;;34.05;100.00;100303.38;5073722;28;20032;-74
2023/07/29 10:25:39;;;;;;;3.92;2.08;;;;;;;33.94;100.00;100330.25;5074227;28;20091;-74
2023/07/29 10:28:07;;;;;;;2.20;2.00;;;;;;;33.10;100.00;100288.47;5056043;28;20115;-74
2023/07/29 10:30:33;;;;;;;2.78;1.98;;;;;;;33.64;100.00;100320.72;5055854;28;20388;-73
2023/07/29 10:33:02;;;;;;;4.07;2.10;;;;;;;33.18;100.00;100293.66;5073583;28;20033;-74
2023/07/29 10:35:28;;;;;;;6.00;2.60;;;;;;;33.48;100.00;100330.66;5073563;28;20106;-74
2023/07/29 10:37:55;;;;;;;4.50;2.30;;;;;;;34.74;100.00;100340.72;5073079;28;20486;-74
2023/07/29 10:40:21;;;;;;;2.97;2.10;;;;;;;34.38;100.00;100319.59;5073812;28;20033;-73
2023/07/29 10:43:11;;;;;;;2.53;2.20;;;;;;;32.30;100.00;100252.22;5073625;28;20044;-73
2023/07/29 10:45:41;;;;;;;3.45;2.25;;;;;;;33.03;100.00;100328.91;5055498;28;20442;-72
2023/07/29 10:48:33;;;;;;;6.03;4.10;;;;;;;33.76;100.00;100321.91;5073274;28;20155;-73
2023/07/29 10:51:34;;;;;;;5.88;2.30;;;;;;;34.24;100.00;100314.38;5073210;28;20047;-73
2023/07/29 10:54:17;;;;;;;3.17;2.28;;;;;;;33.27;100.00;100283.84;5041080;28;20423;-74
2023/07/29 10:56:47;;;;;;;3.25;2.20;;;;;;;32.84;100.00;100289.84;5055190;28;20098;-73
2023/07/29 10:59:12;;;;;;;4.07;2.22;;;;;;;33.57;100.00;100305.81;5071261;28;20056;-73
2023/07/29 11:01:43;;;;;;;2.53;2.00;;;;;;;34.20;100.00;100282.22;5072988;28;20475;-74
2023/07/29 11:04:23;;;;;;;3.83;2.28;;;;;;;33.80;100.00;100312.63;5072958;28;20357;-73
2023/07/29 11:07:07;;;;;;;4.88;2.72;;;;;;;32.99;100.00;100214.28;5073113;28;20062;-74
2023/07/29 11:09:53;;;;;;;3.17;2.25;;;;;;;33.71;100.00;100303.16;5072612;28;20035;-73
2023/07/29 11:12:51;;;;;;;2.83;2.10;;;;;;;34.13;100.00;100296.38;5073248;28;20039;-75
2023/07/29 11:15:25;;;;;;;4.25;2.17;;;;;;;33.64;100.00;100302.25;5071806;28;20056;-74